createdAt,value
2023-04-11T00:01:50.322Z,19.46
2023-04-11T00:06:52.422Z,19.50
2023-04-11T00:11:54.506Z,19.54
2023-04-11T00:16:56.844Z,19.47
2023-04-11T00:21:59.009Z,19.50
2023-04-11T00:27:01.768Z,19.49
2023-04-11T00:32:04.771Z,19.49
2023-04-11T00:37:07.286Z,19.48
2023-04-11T00:42:09.474Z,19.50
2023-04-11T00:47:11.965Z,19.52
2023-04-11T00:52:14.030Z,19.48
2023-04-11T00:57:16.346Z,19.48
2023-04-11T01:02:19.394Z,19.50
2023-04-11T01:07:23.742Z,19.51
2023-04-11T01:12:26.132Z,19.47
2023-04-11T01:17:28.248Z,19.50
2023-04-11T01:22:31.041Z,19.50
2023-04-11T01:27:34.574Z,19.48
2023-04-11T01:32:36.522Z,19.47
2023-04-11T01:37:39.222Z,19.50
2023-04-11T01:42:41.241Z,19.52
2023-04-11T01:47:43.328Z,19.48
2023-04-11T01:52:45.293Z,19.41
2023-04-11T01:57:47.244Z,19.49
2023-04-11T02:02:49.390Z,19.48
2023-04-11T02:07:51.255Z,19.52
2023-04-11T02:12:53.169Z,19.48
2023-04-11T02:17:55.510Z,19.48
2023-04-11T02:22:59.104Z,19.50
2023-04-11T02:28:01.301Z,19.49
2023-04-11T02:33:04.460Z,19.44
2023-04-11T02:38:06.540Z,19.49
2023-04-11T02:43:08.691Z,19.50
2023-04-11T02:48:10.889Z,19.45
2023-04-11T02:53:13.202Z,19.45
2023-04-11T02:58:18.293Z,19.49
2023-04-11T03:03:20.454Z,19.52
2023-04-11T03:08:23.251Z,19.48
2023-04-11T03:13:26.557Z,19.47
2023-04-11T03:18:28.533Z,19.47
2023-04-11T03:23:32.301Z,19.47
2023-04-11T03:28:34.384Z,19.50
2023-04-11T03:33:36.216Z,19.46
2023-04-11T03:38:38.323Z,19.45
2023-04-11T03:43:40.205Z,19.50
2023-04-11T03:48:42.107Z,19.43
2023-04-11T03:53:44.100Z,19.45
2023-04-11T03:58:46.072Z,19.45
2023-04-11T04:03:48.324Z,19.47
2023-04-11T04:08:50.575Z,19.45
2023-04-11T04:13:52.542Z,19.48
2023-04-11T04:18:54.502Z,19.53
2023-04-11T04:23:56.575Z,19.50
2023-04-11T04:29:04.950Z,19.47
2023-04-11T04:34:10.775Z,19.47
2023-04-11T04:39:19.605Z,19.49
2023-04-11T04:44:21.789Z,19.43
2023-04-11T04:49:23.813Z,19.41
2023-04-11T04:54:25.788Z,19.49
2023-04-11T04:59:28.415Z,19.45
2023-04-11T05:04:30.723Z,19.45
2023-04-11T05:09:33.008Z,19.48
2023-04-11T05:14:35.378Z,19.49
2023-04-11T05:19:37.498Z,19.48
2023-04-11T05:24:39.426Z,19.49
2023-04-11T05:29:41.663Z,19.44
2023-04-11T05:34:59.019Z,19.47
2023-04-11T05:40:01.341Z,19.43
2023-04-11T05:45:03.351Z,19.52
2023-04-11T05:50:06.384Z,19.45
2023-04-11T05:55:08.578Z,19.45
2023-04-11T06:00:14.738Z,19.46
2023-04-11T06:05:18.215Z,19.46
2023-04-11T06:10:20.347Z,19.46
2023-04-11T06:15:23.806Z,19.41
2023-04-11T06:20:26.150Z,19.40
2023-04-11T06:25:28.272Z,19.41
2023-04-11T06:30:30.374Z,19.44
2023-04-11T06:35:32.416Z,19.49
2023-04-11T06:40:34.931Z,19.67
2023-04-11T06:45:37.049Z,19.84
2023-04-11T06:50:42.327Z,20.03
2023-04-11T06:55:48.317Z,20.03
2023-04-11T07:00:50.236Z,20.23
2023-04-11T07:05:53.364Z,20.33
2023-04-11T07:10:55.507Z,20.46
2023-04-11T07:15:57.629Z,20.41
2023-04-11T07:20:59.541Z,20.51
2023-04-11T07:26:02.020Z,20.51
2023-04-11T07:31:06.368Z,20.35
2023-04-11T07:36:08.896Z,20.18
2023-04-11T07:41:11.217Z,20.19
2023-04-11T07:46:15.552Z,20.18
2023-04-11T07:51:18.051Z,20.26
2023-04-11T07:56:20.229Z,20.21
2023-04-11T08:01:27.221Z,20.29
2023-04-11T08:06:29.457Z,20.20
2023-04-11T08:11:32.332Z,20.29
2023-04-11T08:16:35.297Z,20.17
2023-04-11T08:21:37.674Z,20.24
2023-04-11T08:26:39.756Z,20.36
2023-04-11T08:31:45.299Z,20.35
2023-04-11T08:36:47.415Z,20.47
2023-04-11T08:41:49.619Z,20.52
2023-04-11T08:46:52.244Z,20.38
2023-04-11T08:51:55.132Z,20.43
2023-04-11T08:56:57.164Z,20.40
2023-04-11T09:02:17.547Z,20.40
2023-04-11T09:07:19.756Z,20.41
2023-04-11T09:12:29.913Z,20.37
2023-04-11T09:17:42.507Z,20.26
2023-04-11T09:22:45.032Z,20.12
2023-04-11T09:27:47.808Z,20.18
2023-04-11T09:32:53.441Z,20.29
2023-04-11T09:37:57.682Z,20.25
2023-04-11T09:43:01.835Z,20.24
2023-04-11T09:48:04.231Z,20.30
2023-04-11T09:53:11.199Z,20.29
2023-04-11T09:58:13.683Z,20.22
2023-04-11T10:03:17.007Z,20.26
2023-04-11T10:08:33.158Z,20.26
2023-04-11T10:13:45.875Z,20.22
2023-04-11T10:18:53.520Z,20.22
2023-04-11T10:24:17.203Z,20.18
2023-04-11T10:29:29.133Z,20.14
2023-04-11T10:34:32.437Z,20.20
2023-04-11T10:39:55.353Z,20.12
2023-04-11T10:45:25.887Z,20.12
2023-04-11T10:50:27.819Z,20.10
2023-04-11T10:55:33.646Z,20.02
2023-04-11T11:00:50.860Z,20.07
2023-04-11T11:06:03.309Z,20.03
2023-04-11T11:11:07.231Z,20.04
2023-04-11T11:16:13.682Z,20.04
2023-04-11T11:21:27.330Z,20.02
2023-04-11T11:26:41.100Z,20.03
2023-04-11T11:31:45.964Z,20.03
2023-04-11T11:36:48.125Z,19.98
2023-04-11T11:41:51.622Z,19.97
2023-04-11T11:47:15.801Z,19.92
2023-04-11T11:52:36.995Z,19.91
2023-04-11T11:57:46.049Z,19.92
2023-04-11T12:02:48.563Z,19.96
2023-04-11T12:07:59.670Z,19.95
2023-04-11T12:13:01.550Z,19.98
2023-04-11T12:18:06.402Z,19.92
2023-04-11T12:23:08.604Z,19.94
2023-04-11T12:28:11.401Z,19.94
2023-04-11T12:33:13.538Z,19.96
2023-04-11T12:38:17.831Z,19.98
2023-04-11T12:43:20.332Z,19.97
2023-04-11T12:48:22.394Z,19.98
2023-04-11T12:53:25.166Z,19.98
2023-04-11T12:58:29.298Z,19.94
2023-04-11T13:03:34.234Z,19.94
2023-04-11T13:08:36.968Z,19.97
2023-04-11T13:13:39.019Z,19.97
2023-04-11T13:18:41.705Z,19.95
2023-04-11T13:23:43.885Z,19.94
2023-04-11T13:28:46.982Z,19.96
2023-04-11T13:33:49.061Z,19.98
2023-04-11T13:38:54.090Z,19.92
2023-04-11T13:43:56.366Z,19.91
2023-04-11T13:48:58.947Z,19.92
2023-04-11T13:54:01.325Z,19.88
2023-04-11T13:59:03.656Z,19.90
2023-04-11T14:04:06.171Z,19.91
2023-04-11T14:09:09.130Z,19.88
2023-04-11T14:14:11.092Z,19.84
2023-04-11T14:19:13.152Z,19.86
2023-04-11T14:24:15.539Z,19.88
2023-04-11T14:29:18.830Z,19.91
2023-04-11T14:34:22.005Z,19.89
2023-04-11T14:39:24.358Z,19.93
2023-04-11T14:44:27.976Z,19.89
2023-04-11T14:49:31.129Z,19.94
2023-04-11T14:54:33.395Z,19.93
2023-04-11T14:59:36.002Z,19.90
2023-04-11T15:04:37.916Z,19.94
2023-04-11T15:09:40.216Z,19.89
2023-04-11T15:14:42.479Z,19.89
2023-04-11T15:19:44.338Z,19.94
2023-04-11T15:24:46.707Z,19.90
2023-04-11T15:29:48.639Z,19.89
2023-04-11T15:34:51.876Z,19.85
2023-04-11T15:39:54.720Z,19.88
2023-04-11T15:44:57.104Z,19.85
2023-04-11T15:50:02.283Z,19.86
2023-04-11T15:55:05.193Z,19.86
2023-04-11T16:00:10.510Z,19.87
2023-04-11T16:05:13.649Z,19.81
2023-04-11T16:10:16.361Z,19.84
2023-04-11T16:15:19.510Z,19.88
2023-04-11T16:20:21.965Z,19.89
2023-04-11T16:25:23.926Z,19.91
2023-04-11T16:30:28.089Z,19.81
2023-04-11T16:35:30.236Z,19.76
2023-04-11T16:40:33.695Z,19.77
2023-04-11T16:45:35.965Z,19.81
2023-04-11T16:50:38.888Z,19.84
2023-04-11T16:55:41.111Z,19.84
2023-04-11T17:00:43.626Z,19.85
2023-04-11T17:05:46.329Z,19.86
2023-04-11T17:10:48.743Z,19.84
2023-04-11T17:15:50.716Z,19.88
2023-04-11T17:20:52.992Z,19.80
2023-04-11T17:25:56.114Z,19.84
2023-04-11T17:30:58.728Z,19.87
2023-04-11T17:36:01.048Z,19.80
2023-04-11T17:41:13.860Z,19.78
2023-04-11T17:46:17.440Z,19.80
2023-04-11T17:51:19.540Z,19.75
2023-04-11T17:56:21.577Z,19.72
2023-04-11T18:01:25.008Z,19.74
2023-04-11T18:06:29.973Z,19.73
2023-04-11T18:11:31.891Z,19.72
2023-04-11T18:16:33.916Z,19.68
2023-04-11T18:21:36.214Z,19.67
2023-04-11T18:26:38.084Z,19.67
2023-04-11T18:31:40.023Z,19.71
2023-04-11T18:36:42.748Z,19.70
2023-04-11T18:41:45.957Z,19.68
2023-04-11T18:46:50.149Z,19.74
2023-04-11T18:51:53.571Z,19.76
2023-04-11T18:56:56.768Z,19.73
2023-04-11T19:02:00.224Z,19.79
2023-04-11T19:07:02.490Z,19.78
2023-04-11T19:12:04.724Z,19.76
2023-04-11T19:17:06.789Z,19.76
2023-04-11T19:22:08.587Z,19.77
2023-04-11T19:27:10.610Z,19.76
2023-04-11T19:32:12.992Z,19.77
2023-04-11T19:37:16.875Z,19.81
2023-04-11T19:42:19.660Z,19.76
2023-04-11T19:47:21.684Z,19.76
2023-04-11T19:52:24.032Z,19.80
2023-04-11T19:57:27.851Z,19.78
2023-04-11T20:02:30.273Z,19.76
2023-04-11T20:07:32.920Z,19.77
2023-04-11T20:12:35.344Z,19.74
2023-04-11T20:17:37.721Z,19.78
2023-04-11T20:22:40.827Z,19.73
2023-04-11T20:27:43.204Z,19.77
2023-04-11T20:32:45.806Z,19.78
2023-04-11T20:37:50.393Z,19.75
2023-04-11T20:42:52.726Z,19.77
2023-04-11T20:47:55.767Z,19.76
2023-04-11T20:52:57.666Z,19.77
2023-04-11T20:57:59.738Z,19.76
2023-04-11T21:03:01.927Z,19.84
2023-04-11T21:08:06.976Z,19.93
2023-04-11T21:13:09.064Z,19.88
2023-04-11T21:18:11.025Z,19.87
2023-04-11T21:23:12.960Z,19.86
2023-04-11T21:28:15.688Z,19.82
2023-04-11T21:33:17.751Z,19.85
2023-04-11T21:38:19.878Z,19.80
2023-04-11T21:43:21.814Z,19.74
2023-04-11T21:48:23.922Z,19.77
2023-04-11T21:53:26.047Z,19.76
2023-04-11T21:58:29.804Z,19.78
2023-04-11T22:03:32.886Z,19.80
2023-04-11T22:08:38.647Z,19.77
2023-04-11T22:13:40.754Z,19.77
2023-04-11T22:18:49.354Z,19.76
2023-04-11T22:23:56.375Z,19.76
2023-04-11T22:28:59.994Z,19.75
2023-04-11T22:34:02.944Z,19.76
2023-04-11T22:39:08.604Z,19.77
2023-04-11T22:44:10.675Z,19.77
2023-04-11T22:49:12.886Z,19.80
2023-04-11T22:54:15.971Z,19.76
2023-04-11T22:59:18.129Z,19.77
2023-04-11T23:04:21.191Z,19.76
2023-04-11T23:09:23.267Z,19.79
2023-04-11T23:14:31.565Z,19.76
2023-04-11T23:19:34.453Z,19.77
2023-04-11T23:24:36.511Z,19.80
2023-04-11T23:29:39.498Z,19.79
2023-04-11T23:34:42.027Z,19.80
2023-04-11T23:39:44.103Z,19.80
2023-04-11T23:44:46.184Z,19.76
2023-04-11T23:49:48.340Z,19.77
2023-04-11T23:54:51.109Z,19.79
2023-04-11T23:59:54.158Z,19.79
